One Hundred Palms, California
Current Conditions -  °F | °C
As of 7:56 AM on Monday 24 Nov 2014 (Local Time) from KNJK Reporting Station
Scattered Clouds Scattered Clouds  
Wind Chill: 11°   Ceiling: Unl
Heat Index: 11°   Visibility: 10mi
Dew Point: -5°   Wind: 6mph
Humidity: 32%   Direction: 270°W
Pressure: 30.27"   Gusts: NA
Location:  33.093°N, 116.06°W
Report Text: KNJK 241556Z 27005KT 10SM FEW100 SCT200 11/M05 A3027 RMK AO2 SLP264 T01111050 $
Loading
Personal Weather Stations






























Interactive Weather Map New forecast layout! Learn more

10-Day Weather Forecast

Advertisements
Track Severe Weather on mobile